sensor_id;sensor_type;location;lat;lon;timestamp;P1;durP1;ratioP1;P2;durP2;ratioP2
18104;SDS011;9179;50.968;3.134;2023-03-31T00:01:25;14.18;;;4.10;;
18104;SDS011;9179;50.968;3.134;2023-03-31T00:03:53;10.13;;;3.65;;
18104;SDS011;9179;50.968;3.134;2023-03-31T00:06:27;9.00;;;2.92;;
18104;SDS011;9179;50.968;3.134;2023-03-31T00:08:55;10.27;;;4.25;;
18104;SDS011;9179;50.968;3.134;2023-03-31T00:11:27;11.27;;;3.90;;
18104;SDS011;9179;50.968;3.134;2023-03-31T00:13:54;8.88;;;3.83;;
18104;SDS011;9179;50.968;3.134;2023-03-31T00:16:22;9.90;;;3.08;;
18104;SDS011;9179;50.968;3.134;2023-03-31T00:18:49;5.20;;;2.85;;
18104;SDS011;9179;50.968;3.134;2023-03-31T00:21:16;6.47;;;3.78;;
18104;SDS011;9179;50.968;3.134;2023-03-31T00:23:58;6.47;;;3.03;;
18104;SDS011;9179;50.968;3.134;2023-03-31T00:26:28;8.25;;;4.38;;
18104;SDS011;9179;50.968;3.134;2023-03-31T00:28:55;4.18;;;2.80;;
18104;SDS011;9179;50.968;3.134;2023-03-31T00:31:22;8.20;;;3.83;;
18104;SDS011;9179;50.968;3.134;2023-03-31T00:33:51;9.10;;;3.90;;
18104;SDS011;9179;50.968;3.134;2023-03-31T00:36:18;8.07;;;4.18;;
18104;SDS011;9179;50.968;3.134;2023-03-31T00:38:51;13.05;;;4.55;;
18104;SDS011;9179;50.968;3.134;2023-03-31T00:41:19;7.28;;;3.42;;
18104;SDS011;9179;50.968;3.134;2023-03-31T00:46:35;12.80;;;4.63;;
18104;SDS011;9179;50.968;3.134;2023-03-31T00:49:08;12.30;;;3.60;;
18104;SDS011;9179;50.968;3.134;2023-03-31T00:51:42;13.85;;;4.15;;
18104;SDS011;9179;50.968;3.134;2023-03-31T00:54:10;12.07;;;4.93;;
18104;SDS011;9179;50.968;3.134;2023-03-31T00:56:38;10.30;;;3.35;;
18104;SDS011;9179;50.968;3.134;2023-03-31T00:59:10;8.90;;;3.65;;
18104;SDS011;9179;50.968;3.134;2023-03-31T01:01:38;4.38;;;2.70;;
18104;SDS011;9179;50.968;3.134;2023-03-31T01:04:08;6.50;;;2.67;;
18104;SDS011;9179;50.968;3.134;2023-03-31T01:06:38;11.57;;;4.20;;
18104;SDS011;9179;50.968;3.134;2023-03-31T01:09:14;4.97;;;3.67;;
18104;SDS011;9179;50.968;3.134;2023-03-31T01:11:42;9.82;;;4.15;;
18104;SDS011;9179;50.968;3.134;2023-03-31T01:14:12;6.15;;;3.95;;
18104;SDS011;9179;50.968;3.134;2023-03-31T01:16:39;6.97;;;3.40;;
18104;SDS011;9179;50.968;3.134;2023-03-31T01:19:07;8.88;;;3.85;;
18104;SDS011;9179;50.968;3.134;2023-03-31T01:21:48;6.72;;;2.88;;
18104;SDS011;9179;50.968;3.134;2023-03-31T01:27:46;10.85;;;3.92;;
18104;SDS011;9179;50.968;3.134;2023-03-31T01:30:39;10.57;;;4.15;;
18104;SDS011;9179;50.968;3.134;2023-03-31T01:33:30;10.18;;;3.15;;
18104;SDS011;9179;50.968;3.134;2023-03-31T01:39:26;13.23;;;3.60;;
18104;SDS011;9179;50.968;3.134;2023-03-31T01:42:17;8.90;;;3.53;;
18104;SDS011;9179;50.968;3.134;2023-03-31T01:44:49;8.32;;;3.35;;
18104;SDS011;9179;50.968;3.134;2023-03-31T01:47:26;6.07;;;3.25;;
18104;SDS011;9179;50.968;3.134;2023-03-31T01:50:04;7.97;;;3.90;;
18104;SDS011;9179;50.968;3.134;2023-03-31T01:52:37;12.63;;;4.88;;
18104;SDS011;9179;50.968;3.134;2023-03-31T01:55:12;12.48;;;3.92;;
18104;SDS011;9179;50.968;3.134;2023-03-31T01:57:44;7.00;;;3.55;;
18104;SDS011;9179;50.968;3.134;2023-03-31T02:00:17;6.60;;;3.58;;
18104;SDS011;9179;50.968;3.134;2023-03-31T02:02:49;9.40;;;3.97;;
18104;SDS011;9179;50.968;3.134;2023-03-31T02:05:24;7.88;;;3.85;;
18104;SDS011;9179;50.968;3.134;2023-03-31T02:07:53;6.13;;;3.08;;
18104;SDS011;9179;50.968;3.134;2023-03-31T02:10:24;5.93;;;3.30;;
18104;SDS011;9179;50.968;3.134;2023-03-31T02:12:54;7.60;;;3.60;;
18104;SDS011;9179;50.968;3.134;2023-03-31T02:15:25;6.70;;;3.15;;
18104;SDS011;9179;50.968;3.134;2023-03-31T02:17:54;9.15;;;3.15;;
18104;SDS011;9179;50.968;3.134;2023-03-31T02:20:24;6.45;;;3.08;;
18104;SDS011;9179;50.968;3.134;2023-03-31T02:22:54;7.57;;;3.80;;
18104;SDS011;9179;50.968;3.134;2023-03-31T02:25:23;5.55;;;3.75;;
18104;SDS011;9179;50.968;3.134;2023-03-31T02:27:55;8.32;;;2.70;;
18104;SDS011;9179;50.968;3.134;2023-03-31T02:30:27;6.35;;;2.88;;
18104;SDS011;9179;50.968;3.134;2023-03-31T02:33:01;7.28;;;3.45;;
18104;SDS011;9179;50.968;3.134;2023-03-31T02:35:29;8.68;;;3.20;;
18104;SDS011;9179;50.968;3.134;2023-03-31T02:37:59;7.90;;;3.13;;
18104;SDS011;9179;50.968;3.134;2023-03-31T02:40:27;5.68;;;2.83;;
18104;SDS011;9179;50.968;3.134;2023-03-31T02:42:54;4.93;;;2.20;;
18104;SDS011;9179;50.968;3.134;2023-03-31T02:45:42;4.25;;;2.03;;
18104;SDS011;9179;50.968;3.134;2023-03-31T02:48:12;3.90;;;2.80;;
18104;SDS011;9179;50.968;3.134;2023-03-31T02:50:52;8.32;;;2.80;;
18104;SDS011;9179;50.968;3.134;2023-03-31T02:53:41;4.88;;;2.10;;
18104;SDS011;9179;50.968;3.134;2023-03-31T02:56:26;3.90;;;2.70;;
18104;SDS011;9179;50.968;3.134;2023-03-31T02:59:11;4.82;;;1.85;;
18104;SDS011;9179;50.968;3.134;2023-03-31T03:01:52;5.28;;;2.10;;
18104;SDS011;9179;50.968;3.134;2023-03-31T03:04:40;4.15;;;2.78;;
18104;SDS011;9179;50.968;3.134;2023-03-31T03:07:27;1.52;;;1.42;;
18104;SDS011;9179;50.968;3.134;2023-03-31T03:10:00;6.35;;;2.03;;
18104;SDS011;9179;50.968;3.134;2023-03-31T03:12:34;3.10;;;1.63;;
18104;SDS011;9179;50.968;3.134;2023-03-31T03:15:09;3.25;;;1.77;;
18104;SDS011;9179;50.968;3.134;2023-03-31T03:17:40;2.45;;;1.50;;
18104;SDS011;9179;50.968;3.134;2023-03-31T03:20:09;2.88;;;1.58;;
18104;SDS011;9179;50.968;3.134;2023-03-31T03:22:38;2.08;;;1.35;;
18104;SDS011;9179;50.968;3.134;2023-03-31T03:25:06;2.97;;;1.63;;
18104;SDS011;9179;50.968;3.134;2023-03-31T03:27:36;1.35;;;1.00;;
18104;SDS011;9179;50.968;3.134;2023-03-31T03:30:03;2.00;;;1.00;;
18104;SDS011;9179;50.968;3.134;2023-03-31T03:32:32;2.35;;;1.55;;
18104;SDS011;9179;50.968;3.134;2023-03-31T03:35:00;1.13;;;1.02;;
18104;SDS011;9179;50.968;3.134;2023-03-31T03:37:27;2.75;;;1.20;;
18104;SDS011;9179;50.968;3.134;2023-03-31T03:39:55;1.45;;;0.90;;
18104;SDS011;9179;50.968;3.134;2023-03-31T03:42:22;1.52;;;1.05;;
18104;SDS011;9179;50.968;3.134;2023-03-31T03:44:50;4.13;;;1.08;;
18104;SDS011;9179;50.968;3.134;2023-03-31T03:47:17;2.47;;;1.20;;
18104;SDS011;9179;50.968;3.134;2023-03-31T03:49:44;1.05;;;1.02;;
18104;SDS011;9179;50.968;3.134;2023-03-31T03:52:13;3.75;;;1.23;;
18104;SDS011;9179;50.968;3.134;2023-03-31T03:54:40;2.75;;;1.00;;
18104;SDS011;9179;50.968;3.134;2023-03-31T03:57:07;1.98;;;1.20;;
18104;SDS011;9179;50.968;3.134;2023-03-31T03:59:34;2.47;;;1.25;;
18104;SDS011;9179;50.968;3.134;2023-03-31T04:02:02;1.40;;;1.02;;
18104;SDS011;9179;50.968;3.134;2023-03-31T04:04:29;2.38;;;1.27;;
18104;SDS011;9179;50.968;3.134;2023-03-31T04:06:56;1.13;;;1.08;;
18104;SDS011;9179;50.968;3.134;2023-03-31T04:09:23;1.08;;;0.93;;
18104;SDS011;9179;50.968;3.134;2023-03-31T04:11:50;2.97;;;1.42;;
18104;SDS011;9179;50.968;3.134;2023-03-31T04:14:17;1.08;;;0.90;;
18104;SDS011;9179;50.968;3.134;2023-03-31T04:16:44;2.17;;;1.30;;
18104;SDS011;9179;50.968;3.134;2023-03-31T04:19:14;0.80;;;0.80;;
18104;SDS011;9179;50.968;3.134;2023-03-31T04:21:42;1.65;;;0.98;;
18104;SDS011;9179;50.968;3.134;2023-03-31T04:24:10;1.20;;;1.10;;
18104;SDS011;9179;50.968;3.134;2023-03-31T04:26:45;2.70;;;1.60;;
18104;SDS011;9179;50.968;3.134;2023-03-31T04:29:15;1.80;;;1.02;;
18104;SDS011;9179;50.968;3.134;2023-03-31T04:31:44;1.00;;;1.00;;
18104;SDS011;9179;50.968;3.134;2023-03-31T04:34:12;2.10;;;1.50;;
18104;SDS011;9179;50.968;3.134;2023-03-31T04:36:41;5.55;;;1.70;;
18104;SDS011;9179;50.968;3.134;2023-03-31T04:39:11;2.42;;;1.60;;
18104;SDS011;9179;50.968;3.134;2023-03-31T04:41:38;3.05;;;1.60;;
18104;SDS011;9179;50.968;3.134;2023-03-31T04:44:05;3.28;;;1.85;;
18104;SDS011;9179;50.968;3.134;2023-03-31T04:46:33;3.63;;;1.80;;
18104;SDS011;9179;50.968;3.134;2023-03-31T04:49:01;5.03;;;2.22;;
18104;SDS011;9179;50.968;3.134;2023-03-31T04:51:31;5.30;;;2.95;;
18104;SDS011;9179;50.968;3.134;2023-03-31T04:53:58;3.25;;;1.77;;
18104;SDS011;9179;50.968;3.134;2023-03-31T04:56:25;1.55;;;1.45;;
18104;SDS011;9179;50.968;3.134;2023-03-31T04:58:52;3.58;;;1.83;;
18104;SDS011;9179;50.968;3.134;2023-03-31T05:01:19;1.88;;;1.75;;
18104;SDS011;9179;50.968;3.134;2023-03-31T05:03:46;4.28;;;2.35;;
18104;SDS011;9179;50.968;3.134;2023-03-31T05:06:13;5.13;;;2.67;;
18104;SDS011;9179;50.968;3.134;2023-03-31T05:08:42;6.22;;;2.90;;
18104;SDS011;9179;50.968;3.134;2023-03-31T05:11:09;4.75;;;2.70;;
18104;SDS011;9179;50.968;3.134;2023-03-31T05:13:36;3.22;;;2.25;;
18104;SDS011;9179;50.968;3.134;2023-03-31T05:16:06;5.75;;;3.03;;
18104;SDS011;9179;50.968;3.134;2023-03-31T05:18:34;3.63;;;2.67;;
18104;SDS011;9179;50.968;3.134;2023-03-31T05:21:07;11.23;;;3.17;;
18104;SDS011;9179;50.968;3.134;2023-03-31T05:23:36;4.72;;;2.80;;
18104;SDS011;9179;50.968;3.134;2023-03-31T05:26:04;5.80;;;3.00;;
18104;SDS011;9179;50.968;3.134;2023-03-31T05:28:32;8.63;;;3.80;;
18104;SDS011;9179;50.968;3.134;2023-03-31T05:30:59;5.13;;;3.80;;
18104;SDS011;9179;50.968;3.134;2023-03-31T05:33:27;6.20;;;3.03;;
18104;SDS011;9179;50.968;3.134;2023-03-31T05:35:55;9.77;;;3.60;;
18104;SDS011;9179;50.968;3.134;2023-03-31T05:38:24;9.15;;;3.53;;
18104;SDS011;9179;50.968;3.134;2023-03-31T05:40:53;7.38;;;3.95;;
18104;SDS011;9179;50.968;3.134;2023-03-31T05:43:21;10.75;;;4.03;;
18104;SDS011;9179;50.968;3.134;2023-03-31T05:45:48;11.90;;;3.95;;
18104;SDS011;9179;50.968;3.134;2023-03-31T05:48:15;9.40;;;4.55;;
18104;SDS011;9179;50.968;3.134;2023-03-31T05:50:42;7.82;;;4.90;;
18104;SDS011;9179;50.968;3.134;2023-03-31T05:53:10;9.48;;;4.45;;
18104;SDS011;9179;50.968;3.134;2023-03-31T05:55:37;10.50;;;5.22;;
18104;SDS011;9179;50.968;3.134;2023-03-31T05:58:04;6.90;;;4.57;;
18104;SDS011;9179;50.968;3.134;2023-03-31T06:00:33;7.68;;;3.75;;
18104;SDS011;9179;50.968;3.134;2023-03-31T06:03:02;8.73;;;3.45;;
18104;SDS011;9179;50.968;3.134;2023-03-31T06:05:31;11.60;;;4.75;;
18104;SDS011;9179;50.968;3.134;2023-03-31T06:07:59;12.38;;;4.00;;
18104;SDS011;9179;50.968;3.134;2023-03-31T06:10:26;9.18;;;3.97;;
18104;SDS011;9179;50.968;3.134;2023-03-31T06:12:53;14.07;;;4.20;;
18104;SDS011;9179;50.968;3.134;2023-03-31T06:15:20;13.68;;;5.10;;
18104;SDS011;9179;50.968;3.134;2023-03-31T06:17:48;6.95;;;3.63;;
18104;SDS011;9179;50.968;3.134;2023-03-31T06:20:15;12.40;;;4.10;;
18104;SDS011;9179;50.968;3.134;2023-03-31T06:22:42;13.38;;;4.47;;
18104;SDS011;9179;50.968;3.134;2023-03-31T06:25:09;11.88;;;4.10;;
18104;SDS011;9179;50.968;3.134;2023-03-31T06:27:36;13.45;;;5.05;;
18104;SDS011;9179;50.968;3.134;2023-03-31T06:30:03;6.63;;;3.72;;
18104;SDS011;9179;50.968;3.134;2023-03-31T06:32:30;8.88;;;4.45;;
18104;SDS011;9179;50.968;3.134;2023-03-31T06:34:59;14.82;;;4.45;;
18104;SDS011;9179;50.968;3.134;2023-03-31T06:37:26;9.02;;;4.38;;
18104;SDS011;9179;50.968;3.134;2023-03-31T06:39:52;11.40;;;4.80;;
18104;SDS011;9179;50.968;3.134;2023-03-31T06:42:19;12.98;;;4.60;;
18104;SDS011;9179;50.968;3.134;2023-03-31T06:44:46;7.80;;;3.85;;
18104;SDS011;9179;50.968;3.134;2023-03-31T06:47:13;17.13;;;6.00;;
18104;SDS011;9179;50.968;3.134;2023-03-31T06:49:40;11.02;;;4.63;;
18104;SDS011;9179;50.968;3.134;2023-03-31T06:52:08;13.77;;;4.78;;
18104;SDS011;9179;50.968;3.134;2023-03-31T06:54:35;13.25;;;4.70;;
18104;SDS011;9179;50.968;3.134;2023-03-31T06:57:02;13.32;;;4.35;;
18104;SDS011;9179;50.968;3.134;2023-03-31T06:59:29;9.20;;;4.25;;
18104;SDS011;9179;50.968;3.134;2023-03-31T07:01:56;9.63;;;4.47;;
18104;SDS011;9179;50.968;3.134;2023-03-31T07:04:23;12.38;;;5.28;;
18104;SDS011;9179;50.968;3.134;2023-03-31T07:06:50;14.38;;;5.40;;
18104;SDS011;9179;50.968;3.134;2023-03-31T07:09:18;10.48;;;4.35;;
18104;SDS011;9179;50.968;3.134;2023-03-31T07:11:47;11.68;;;4.60;;
18104;SDS011;9179;50.968;3.134;2023-03-31T07:14:14;13.85;;;5.80;;
18104;SDS011;9179;50.968;3.134;2023-03-31T07:16:41;15.00;;;4.93;;
18104;SDS011;9179;50.968;3.134;2023-03-31T07:19:08;13.52;;;4.82;;
18104;SDS011;9179;50.968;3.134;2023-03-31T07:21:35;11.38;;;4.32;;
18104;SDS011;9179;50.968;3.134;2023-03-31T07:24:02;11.95;;;5.18;;
18104;SDS011;9179;50.968;3.134;2023-03-31T07:26:31;9.43;;;5.03;;
18104;SDS011;9179;50.968;3.134;2023-03-31T07:28:58;16.95;;;6.07;;
18104;SDS011;9179;50.968;3.134;2023-03-31T07:31:25;13.80;;;5.57;;
18104;SDS011;9179;50.968;3.134;2023-03-31T07:33:52;10.95;;;5.43;;
18104;SDS011;9179;50.968;3.134;2023-03-31T07:36:19;16.88;;;4.93;;
18104;SDS011;9179;50.968;3.134;2023-03-31T07:38:46;10.27;;;5.63;;
18104;SDS011;9179;50.968;3.134;2023-03-31T07:41:14;12.57;;;4.82;;
18104;SDS011;9179;50.968;3.134;2023-03-31T07:43:44;14.85;;;5.10;;
18104;SDS011;9179;50.968;3.134;2023-03-31T07:46:15;18.02;;;5.25;;
18104;SDS011;9179;50.968;3.134;2023-03-31T07:48:44;9.77;;;5.03;;
18104;SDS011;9179;50.968;3.134;2023-03-31T07:51:12;14.95;;;4.60;;
18104;SDS011;9179;50.968;3.134;2023-03-31T07:53:40;13.35;;;6.07;;
18104;SDS011;9179;50.968;3.134;2023-03-31T07:56:07;9.73;;;5.20;;
18104;SDS011;9179;50.968;3.134;2023-03-31T07:58:34;12.13;;;4.88;;
18104;SDS011;9179;50.968;3.134;2023-03-31T08:01:02;14.00;;;5.20;;
18104;SDS011;9179;50.968;3.134;2023-03-31T08:03:30;13.20;;;4.68;;
18104;SDS011;9179;50.968;3.134;2023-03-31T08:05:58;8.60;;;4.57;;
18104;SDS011;9179;50.968;3.134;2023-03-31T08:08:25;14.07;;;4.72;;
18104;SDS011;9179;50.968;3.134;2023-03-31T08:10:52;14.90;;;5.68;;
18104;SDS011;9179;50.968;3.134;2023-03-31T08:13:19;13.98;;;4.70;;
18104;SDS011;9179;50.968;3.134;2023-03-31T08:15:46;8.55;;;4.10;;
18104;SDS011;9179;50.968;3.134;2023-03-31T08:18:14;10.77;;;3.70;;
18104;SDS011;9179;50.968;3.134;2023-03-31T08:20:41;9.80;;;4.57;;
18104;SDS011;9179;50.968;3.134;2023-03-31T08:23:09;11.25;;;5.00;;
18104;SDS011;9179;50.968;3.134;2023-03-31T08:25:36;9.55;;;4.72;;
18104;SDS011;9179;50.968;3.134;2023-03-31T08:28:03;8.45;;;4.68;;
18104;SDS011;9179;50.968;3.134;2023-03-31T08:30:31;11.15;;;4.43;;
18104;SDS011;9179;50.968;3.134;2023-03-31T08:32:59;10.93;;;5.18;;
18104;SDS011;9179;50.968;3.134;2023-03-31T08:35:27;8.35;;;3.72;;
18104;SDS011;9179;50.968;3.134;2023-03-31T08:37:54;10.02;;;4.90;;
18104;SDS011;9179;50.968;3.134;2023-03-31T08:40:22;13.05;;;4.13;;
18104;SDS011;9179;50.968;3.134;2023-03-31T08:42:52;12.77;;;3.85;;
18104;SDS011;9179;50.968;3.134;2023-03-31T08:45:22;11.15;;;4.80;;
18104;SDS011;9179;50.968;3.134;2023-03-31T08:47:54;15.65;;;4.68;;
18104;SDS011;9179;50.968;3.134;2023-03-31T08:50:28;9.20;;;3.42;;
18104;SDS011;9179;50.968;3.134;2023-03-31T08:52:58;7.72;;;4.20;;
18104;SDS011;9179;50.968;3.134;2023-03-31T08:55:30;13.43;;;4.18;;
18104;SDS011;9179;50.968;3.134;2023-03-31T08:58:05;12.80;;;4.57;;
18104;SDS011;9179;50.968;3.134;2023-03-31T09:00:39;6.55;;;3.70;;
18104;SDS011;9179;50.968;3.134;2023-03-31T09:03:13;11.80;;;4.03;;
18104;SDS011;9179;50.968;3.134;2023-03-31T09:05:54;9.57;;;4.05;;
18104;SDS011;9179;50.968;3.134;2023-03-31T09:08:30;9.05;;;3.88;;
18104;SDS011;9179;50.968;3.134;2023-03-31T09:11:03;7.60;;;3.33;;
18104;SDS011;9179;50.968;3.134;2023-03-31T09:14:01;11.23;;;4.43;;
18104;SDS011;9179;50.968;3.134;2023-03-31T09:16:44;11.55;;;4.03;;
18104;SDS011;9179;50.968;3.134;2023-03-31T09:19:19;9.07;;;4.15;;
18104;SDS011;9179;50.968;3.134;2023-03-31T09:21:59;9.73;;;3.72;;
18104;SDS011;9179;50.968;3.134;2023-03-31T09:24:29;8.40;;;4.25;;
18104;SDS011;9179;50.968;3.134;2023-03-31T09:26:58;10.70;;;4.22;;
18104;SDS011;9179;50.968;3.134;2023-03-31T09:29:29;8.77;;;5.05;;
18104;SDS011;9179;50.968;3.134;2023-03-31T09:32:09;9.35;;;3.83;;
18104;SDS011;9179;50.968;3.134;2023-03-31T09:34:40;6.53;;;3.78;;
18104;SDS011;9179;50.968;3.134;2023-03-31T09:37:09;10.90;;;4.00;;
18104;SDS011;9179;50.968;3.134;2023-03-31T09:39:37;12.45;;;3.78;;
18104;SDS011;9179;50.968;3.134;2023-03-31T09:42:04;5.90;;;3.10;;
18104;SDS011;9179;50.968;3.134;2023-03-31T09:44:34;6.57;;;3.58;;
18104;SDS011;9179;50.968;3.134;2023-03-31T09:47:03;7.55;;;2.50;;
18104;SDS011;9179;50.968;3.134;2023-03-31T09:49:33;4.97;;;2.38;;
18104;SDS011;9179;50.968;3.134;2023-03-31T09:52:03;5.45;;;2.40;;
18104;SDS011;9179;50.968;3.134;2023-03-31T09:54:37;5.95;;;2.47;;
18104;SDS011;9179;50.968;3.134;2023-03-31T09:57:12;8.73;;;2.63;;
18104;SDS011;9179;50.968;3.134;2023-03-31T09:59:41;6.10;;;2.70;;
18104;SDS011;9179;50.968;3.134;2023-03-31T10:02:21;3.92;;;2.38;;
18104;SDS011;9179;50.968;3.134;2023-03-31T10:05:02;10.73;;;3.70;;
18104;SDS011;9179;50.968;3.134;2023-03-31T10:07:30;8.13;;;2.67;;
18104;SDS011;9179;50.968;3.134;2023-03-31T10:10:00;9.65;;;3.67;;
18104;SDS011;9179;50.968;3.134;2023-03-31T10:12:28;8.23;;;3.47;;
18104;SDS011;9179;50.968;3.134;2023-03-31T10:15:02;11.38;;;4.05;;
18104;SDS011;9179;50.968;3.134;2023-03-31T10:17:43;8.68;;;3.90;;
18104;SDS011;9179;50.968;3.134;2023-03-31T10:20:17;8.32;;;4.05;;
18104;SDS011;9179;50.968;3.134;2023-03-31T10:22:46;10.07;;;4.35;;
18104;SDS011;9179;50.968;3.134;2023-03-31T10:25:16;10.00;;;4.43;;
18104;SDS011;9179;50.968;3.134;2023-03-31T10:27:46;8.38;;;4.35;;
18104;SDS011;9179;50.968;3.134;2023-03-31T10:30:17;9.07;;;3.00;;
18104;SDS011;9179;50.968;3.134;2023-03-31T10:32:48;7.10;;;3.33;;
18104;SDS011;9179;50.968;3.134;2023-03-31T10:35:20;7.82;;;2.65;;
18104;SDS011;9179;50.968;3.134;2023-03-31T10:37:52;10.38;;;3.17;;
18104;SDS011;9179;50.968;3.134;2023-03-31T10:40:23;5.82;;;2.80;;
18104;SDS011;9179;50.968;3.134;2023-03-31T10:42:58;4.72;;;2.38;;
18104;SDS011;9179;50.968;3.134;2023-03-31T10:45:29;9.23;;;3.30;;
18104;SDS011;9179;50.968;3.134;2023-03-31T10:48:01;4.63;;;2.65;;
18104;SDS011;9179;50.968;3.134;2023-03-31T10:50:29;6.65;;;3.70;;
18104;SDS011;9179;50.968;3.134;2023-03-31T10:53:02;5.38;;;2.83;;
18104;SDS011;9179;50.968;3.134;2023-03-31T10:55:34;6.68;;;2.33;;
18104;SDS011;9179;50.968;3.134;2023-03-31T10:58:08;3.95;;;2.13;;
18104;SDS011;9179;50.968;3.134;2023-03-31T11:00:48;4.05;;;2.20;;
18104;SDS011;9179;50.968;3.134;2023-03-31T11:03:35;3.72;;;2.25;;
18104;SDS011;9179;50.968;3.134;2023-03-31T11:06:21;4.90;;;2.13;;
18104;SDS011;9179;50.968;3.134;2023-03-31T11:08:57;6.75;;;2.42;;
18104;SDS011;9179;50.968;3.134;2023-03-31T11:14:25;5.18;;;3.10;;
18104;SDS011;9179;50.968;3.134;2023-03-31T11:17:02;5.68;;;2.80;;
18104;SDS011;9179;50.968;3.134;2023-03-31T11:19:42;4.85;;;2.47;;
18104;SDS011;9179;50.968;3.134;2023-03-31T11:22:18;3.78;;;2.38;;
18104;SDS011;9179;50.968;3.134;2023-03-31T11:25:03;4.82;;;2.55;;
18104;SDS011;9179;50.968;3.134;2023-03-31T11:27:47;6.15;;;3.28;;
18104;SDS011;9179;50.968;3.134;2023-03-31T11:30:24;6.80;;;3.15;;
18104;SDS011;9179;50.968;3.134;2023-03-31T11:33:00;6.13;;;3.70;;
18104;SDS011;9179;50.968;3.134;2023-03-31T11:35:44;3.92;;;2.50;;
18104;SDS011;9179;50.968;3.134;2023-03-31T11:38:33;3.80;;;3.38;;
18104;SDS011;9179;50.968;3.134;2023-03-31T11:41:09;8.02;;;2.88;;
18104;SDS011;9179;50.968;3.134;2023-03-31T11:43:41;4.63;;;2.67;;
18104;SDS011;9179;50.968;3.134;2023-03-31T11:46:10;4.70;;;2.80;;
18104;SDS011;9179;50.968;3.134;2023-03-31T11:48:43;6.50;;;2.15;;
18104;SDS011;9179;50.968;3.134;2023-03-31T11:51:13;7.03;;;2.20;;
18104;SDS011;9179;50.968;3.134;2023-03-31T11:53:43;6.43;;;2.22;;
18104;SDS011;9179;50.968;3.134;2023-03-31T11:56:12;4.75;;;2.45;;
18104;SDS011;9179;50.968;3.134;2023-03-31T11:58:43;5.22;;;2.20;;
18104;SDS011;9179;50.968;3.134;2023-03-31T12:01:14;7.90;;;3.15;;
18104;SDS011;9179;50.968;3.134;2023-03-31T12:03:47;5.85;;;2.75;;
18104;SDS011;9179;50.968;3.134;2023-03-31T12:06:24;5.40;;;2.75;;
18104;SDS011;9179;50.968;3.134;2023-03-31T12:09:00;4.13;;;2.00;;
18104;SDS011;9179;50.968;3.134;2023-03-31T12:11:33;14.48;;;3.08;;
18104;SDS011;9179;50.968;3.134;2023-03-31T12:14:10;5.55;;;3.65;;
18104;SDS011;9179;50.968;3.134;2023-03-31T12:16:43;3.55;;;1.77;;
18104;SDS011;9179;50.968;3.134;2023-03-31T12:19:13;6.80;;;2.40;;
18104;SDS011;9179;50.968;3.134;2023-03-31T12:21:46;5.32;;;2.30;;
18104;SDS011;9179;50.968;3.134;2023-03-31T12:24:16;4.53;;;2.38;;
18104;SDS011;9179;50.968;3.134;2023-03-31T12:26:46;8.13;;;2.47;;
18104;SDS011;9179;50.968;3.134;2023-03-31T12:29:24;3.70;;;1.80;;
18104;SDS011;9179;50.968;3.134;2023-03-31T12:31:56;9.13;;;2.67;;
18104;SDS011;9179;50.968;3.134;2023-03-31T12:34:26;6.70;;;2.42;;
18104;SDS011;9179;50.968;3.134;2023-03-31T12:37:07;6.78;;;2.33;;
18104;SDS011;9179;50.968;3.134;2023-03-31T12:40:00;5.32;;;2.03;;
18104;SDS011;9179;50.968;3.134;2023-03-31T12:43:04;7.35;;;2.97;;
18104;SDS011;9179;50.968;3.134;2023-03-31T12:45:47;5.40;;;1.90;;
18104;SDS011;9179;50.968;3.134;2023-03-31T12:48:33;6.80;;;2.50;;
18104;SDS011;9179;50.968;3.134;2023-03-31T12:51:21;7.97;;;2.83;;
18104;SDS011;9179;50.968;3.134;2023-03-31T12:54:08;5.47;;;2.28;;
18104;SDS011;9179;50.968;3.134;2023-03-31T12:57:04;6.97;;;2.60;;
18104;SDS011;9179;50.968;3.134;2023-03-31T12:59:41;4.03;;;2.47;;
18104;SDS011;9179;50.968;3.134;2023-03-31T13:04:58;5.95;;;2.85;;
18104;SDS011;9179;50.968;3.134;2023-03-31T13:07:45;6.78;;;2.60;;
18104;SDS011;9179;50.968;3.134;2023-03-31T13:10:23;5.88;;;3.00;;
18104;SDS011;9179;50.968;3.134;2023-03-31T13:12:57;6.50;;;2.78;;
18104;SDS011;9179;50.968;3.134;2023-03-31T13:15:29;7.40;;;2.47;;
18104;SDS011;9179;50.968;3.134;2023-03-31T13:17:58;6.55;;;2.22;;
18104;SDS011;9179;50.968;3.134;2023-03-31T13:20:33;7.95;;;2.58;;
18104;SDS011;9179;50.968;3.134;2023-03-31T13:23:03;7.18;;;2.97;;
18104;SDS011;9179;50.968;3.134;2023-03-31T13:28:31;9.13;;;2.72;;
18104;SDS011;9179;50.968;3.134;2023-03-31T13:31:00;5.22;;;2.70;;
18104;SDS011;9179;50.968;3.134;2023-03-31T13:33:33;3.47;;;2.45;;
18104;SDS011;9179;50.968;3.134;2023-03-31T13:36:27;9.00;;;3.58;;
18104;SDS011;9179;50.968;3.134;2023-03-31T13:39:12;5.53;;;2.45;;
18104;SDS011;9179;50.968;3.134;2023-03-31T13:42:05;3.65;;;2.30;;
18104;SDS011;9179;50.968;3.134;2023-03-31T13:44:55;7.75;;;3.33;;
18104;SDS011;9179;50.968;3.134;2023-03-31T13:50:52;7.60;;;2.78;;
18104;SDS011;9179;50.968;3.134;2023-03-31T13:53:37;8.32;;;2.42;;
18104;SDS011;9179;50.968;3.134;2023-03-31T13:56:29;10.98;;;3.28;;
18104;SDS011;9179;50.968;3.134;2023-03-31T14:02:26;7.70;;;2.35;;
18104;SDS011;9179;50.968;3.134;2023-03-31T14:05:16;5.57;;;2.13;;
18104;SDS011;9179;50.968;3.134;2023-03-31T14:07:52;3.55;;;2.60;;
18104;SDS011;9179;50.968;3.134;2023-03-31T14:10:22;4.47;;;1.70;;
18104;SDS011;9179;50.968;3.134;2023-03-31T14:12:51;2.80;;;2.47;;
18104;SDS011;9179;50.968;3.134;2023-03-31T14:15:29;4.47;;;1.95;;
18104;SDS011;9179;50.968;3.134;2023-03-31T14:17:56;6.53;;;2.67;;
18104;SDS011;9179;50.968;3.134;2023-03-31T14:20:27;2.80;;;2.03;;
18104;SDS011;9179;50.968;3.134;2023-03-31T14:23:09;4.80;;;1.92;;
18104;SDS011;9179;50.968;3.134;2023-03-31T14:25:45;4.57;;;2.50;;
18104;SDS011;9179;50.968;3.134;2023-03-31T14:28:20;5.80;;;2.22;;
18104;SDS011;9179;50.968;3.134;2023-03-31T14:31:01;3.15;;;1.95;;
18104;SDS011;9179;50.968;3.134;2023-03-31T14:33:38;3.85;;;1.77;;
18104;SDS011;9179;50.968;3.134;2023-03-31T14:36:12;6.53;;;2.42;;
18104;SDS011;9179;50.968;3.134;2023-03-31T14:38:46;7.90;;;3.50;;
18104;SDS011;9179;50.968;3.134;2023-03-31T14:41:17;5.03;;;2.28;;
18104;SDS011;9179;50.968;3.134;2023-03-31T14:43:53;7.82;;;3.60;;
18104;SDS011;9179;50.968;3.134;2023-03-31T14:46:23;6.95;;;2.70;;
18104;SDS011;9179;50.968;3.134;2023-03-31T14:48:50;7.95;;;3.03;;
18104;SDS011;9179;50.968;3.134;2023-03-31T14:51:18;7.72;;;3.38;;
18104;SDS011;9179;50.968;3.134;2023-03-31T14:53:56;11.63;;;4.38;;
18104;SDS011;9179;50.968;3.134;2023-03-31T14:56:26;9.98;;;3.33;;
18104;SDS011;9179;50.968;3.134;2023-03-31T14:58:59;7.07;;;3.28;;
18104;SDS011;9179;50.968;3.134;2023-03-31T15:01:28;12.75;;;4.53;;
18104;SDS011;9179;50.968;3.134;2023-03-31T15:03:59;10.60;;;3.53;;
18104;SDS011;9179;50.968;3.134;2023-03-31T15:06:30;10.07;;;3.55;;
18104;SDS011;9179;50.968;3.134;2023-03-31T15:09:00;15.10;;;3.15;;
18104;SDS011;9179;50.968;3.134;2023-03-31T15:11:29;7.93;;;3.80;;
18104;SDS011;9179;50.968;3.134;2023-03-31T15:13:56;12.07;;;4.18;;
18104;SDS011;9179;50.968;3.134;2023-03-31T15:16:29;7.75;;;3.78;;
18104;SDS011;9179;50.968;3.134;2023-03-31T15:19:00;12.68;;;4.10;;
18104;SDS011;9179;50.968;3.134;2023-03-31T15:21:32;6.25;;;3.50;;
18104;SDS011;9179;50.968;3.134;2023-03-31T15:24:04;9.15;;;4.10;;
18104;SDS011;9179;50.968;3.134;2023-03-31T15:26:33;11.10;;;4.05;;
18104;SDS011;9179;50.968;3.134;2023-03-31T15:29:04;9.38;;;4.60;;
18104;SDS011;9179;50.968;3.134;2023-03-31T15:31:34;10.93;;;3.55;;
18104;SDS011;9179;50.968;3.134;2023-03-31T15:34:10;11.95;;;4.43;;
18104;SDS011;9179;50.968;3.134;2023-03-31T15:36:39;16.23;;;6.30;;
18104;SDS011;9179;50.968;3.134;2023-03-31T15:39:09;16.50;;;5.35;;
18104;SDS011;9179;50.968;3.134;2023-03-31T15:41:38;13.88;;;5.32;;
18104;SDS011;9179;50.968;3.134;2023-03-31T15:44:07;19.52;;;6.38;;
18104;SDS011;9179;50.968;3.134;2023-03-31T15:46:56;17.63;;;5.20;;
18104;SDS011;9179;50.968;3.134;2023-03-31T15:49:25;17.77;;;5.80;;
18104;SDS011;9179;50.968;3.134;2023-03-31T15:51:53;12.07;;;4.97;;